sensor_id;sensor_type;location;lat;lon;timestamp;P1;durP1;ratioP1;P2;durP2;ratioP2
9438;SDS011;5176;42.622;25.386;2023-03-01T00:02:16;3.23;;;2.97;;
9438;SDS011;5176;42.622;25.386;2023-03-01T00:04:45;3.50;;;3.20;;
9438;SDS011;5176;42.622;25.386;2023-03-01T00:07:14;3.77;;;3.43;;
9438;SDS011;5176;42.622;25.386;2023-03-01T00:09:42;3.50;;;3.20;;
9438;SDS011;5176;42.622;25.386;2023-03-01T00:12:12;4.20;;;3.80;;
9438;SDS011;5176;42.622;25.386;2023-03-01T00:14:41;6.37;;;5.77;;
9438;SDS011;5176;42.622;25.386;2023-03-01T00:17:11;5.70;;;5.20;;
9438;SDS011;5176;42.622;25.386;2023-03-01T00:19:40;5.30;;;4.80;;
9438;SDS011;5176;42.622;25.386;2023-03-01T00:22:08;5.03;;;4.53;;
9438;SDS011;5176;42.622;25.386;2023-03-01T00:24:37;5.17;;;4.67;;
9438;SDS011;5176;42.622;25.386;2023-03-01T00:27:06;6.30;;;5.30;;
9438;SDS011;5176;42.622;25.386;2023-03-01T00:29:34;5.83;;;5.27;;
9438;SDS011;5176;42.622;25.386;2023-03-01T00:32:03;6.47;;;5.87;;
9438;SDS011;5176;42.622;25.386;2023-03-01T00:37:03;6.63;;;6.00;;
9438;SDS011;5176;42.622;25.386;2023-03-01T00:39:32;7.40;;;6.43;;
9438;SDS011;5176;42.622;25.386;2023-03-01T00:42:01;8.23;;;6.90;;
9438;SDS011;5176;42.622;25.386;2023-03-01T00:44:31;7.87;;;7.00;;
9438;SDS011;5176;42.622;25.386;2023-03-01T00:47:00;7.23;;;6.53;;
9438;SDS011;5176;42.622;25.386;2023-03-01T00:49:29;6.47;;;5.87;;
9438;SDS011;5176;42.622;25.386;2023-03-01T00:52:00;5.70;;;5.20;;
9438;SDS011;5176;42.622;25.386;2023-03-01T00:54:28;5.73;;;5.17;;
9438;SDS011;5176;42.622;25.386;2023-03-01T00:56:57;5.30;;;4.70;;
9438;SDS011;5176;42.622;25.386;2023-03-01T00:59:26;4.97;;;4.47;;
9438;SDS011;5176;42.622;25.386;2023-03-01T01:01:55;4.67;;;4.27;;
9438;SDS011;5176;42.622;25.386;2023-03-01T01:04:25;3.90;;;3.53;;
9438;SDS011;5176;42.622;25.386;2023-03-01T01:06:54;4.27;;;3.87;;
9438;SDS011;5176;42.622;25.386;2023-03-01T01:09:26;2.80;;;2.60;;
9438;SDS011;5176;42.622;25.386;2023-03-01T01:11:55;2.93;;;2.63;;
9438;SDS011;5176;42.622;25.386;2023-03-01T01:14:23;2.40;;;2.20;;
9438;SDS011;5176;42.622;25.386;2023-03-01T01:16:52;2.67;;;2.40;;
9438;SDS011;5176;42.622;25.386;2023-03-01T01:19:21;2.07;;;1.90;;
9438;SDS011;5176;42.622;25.386;2023-03-01T01:21:50;2.70;;;2.50;;
9438;SDS011;5176;42.622;25.386;2023-03-01T01:24:20;1.87;;;1.77;;
9438;SDS011;5176;42.622;25.386;2023-03-01T01:26:50;2.00;;;1.90;;
9438;SDS011;5176;42.622;25.386;2023-03-01T01:29:19;1.83;;;1.73;;
9438;SDS011;5176;42.622;25.386;2023-03-01T01:31:47;1.60;;;1.50;;
9438;SDS011;5176;42.622;25.386;2023-03-01T01:34:17;1.43;;;1.33;;
9438;SDS011;5176;42.622;25.386;2023-03-01T01:36:47;1.80;;;1.70;;
9438;SDS011;5176;42.622;25.386;2023-03-01T01:39:16;1.90;;;1.80;;
9438;SDS011;5176;42.622;25.386;2023-03-01T01:41:45;2.30;;;2.10;;
9438;SDS011;5176;42.622;25.386;2023-03-01T01:44:17;1.87;;;1.77;;
9438;SDS011;5176;42.622;25.386;2023-03-01T01:46:47;2.00;;;1.90;;
9438;SDS011;5176;42.622;25.386;2023-03-01T01:49:23;2.40;;;2.07;;
9438;SDS011;5176;42.622;25.386;2023-03-01T01:51:59;2.10;;;2.00;;
9438;SDS011;5176;42.622;25.386;2023-03-01T01:54:36;3.23;;;1.93;;
9438;SDS011;5176;42.622;25.386;2023-03-01T01:57:09;1.77;;;1.67;;
9438;SDS011;5176;42.622;25.386;2023-03-01T01:59:45;2.20;;;2.10;;
9438;SDS011;5176;42.622;25.386;2023-03-01T02:02:17;2.50;;;2.30;;
9438;SDS011;5176;42.622;25.386;2023-03-01T02:04:47;1.80;;;1.70;;
9438;SDS011;5176;42.622;25.386;2023-03-01T02:07:18;1.90;;;1.80;;
9438;SDS011;5176;42.622;25.386;2023-03-01T02:09:50;1.67;;;1.57;;
9438;SDS011;5176;42.622;25.386;2023-03-01T02:12:20;1.70;;;1.60;;
9438;SDS011;5176;42.622;25.386;2023-03-01T02:14:54;2.00;;;1.90;;
9438;SDS011;5176;42.622;25.386;2023-03-01T02:17:23;2.40;;;2.20;;
9438;SDS011;5176;42.622;25.386;2023-03-01T02:19:57;1.77;;;1.67;;
9438;SDS011;5176;42.622;25.386;2023-03-01T02:22:35;1.60;;;1.50;;
9438;SDS011;5176;42.622;25.386;2023-03-01T02:25:08;1.90;;;1.80;;
9438;SDS011;5176;42.622;25.386;2023-03-01T02:27:48;1.37;;;1.33;;
9438;SDS011;5176;42.622;25.386;2023-03-01T02:30:23;1.57;;;1.47;;
9438;SDS011;5176;42.622;25.386;2023-03-01T02:32:53;1.80;;;1.70;;
9438;SDS011;5176;42.622;25.386;2023-03-01T02:35:29;1.63;;;1.60;;
9438;SDS011;5176;42.622;25.386;2023-03-01T02:38:00;1.87;;;1.77;;
9438;SDS011;5176;42.622;25.386;2023-03-01T02:40:31;1.83;;;1.73;;
9438;SDS011;5176;42.622;25.386;2023-03-01T02:43:02;1.60;;;1.50;;
9438;SDS011;5176;42.622;25.386;2023-03-01T02:45:37;1.90;;;1.60;;
9438;SDS011;5176;42.622;25.386;2023-03-01T02:48:05;1.80;;;1.60;;
9438;SDS011;5176;42.622;25.386;2023-03-01T02:50:42;1.70;;;1.60;;
9438;SDS011;5176;42.622;25.386;2023-03-01T02:53:21;1.50;;;1.40;;
9438;SDS011;5176;42.622;25.386;2023-03-01T02:55:56;1.50;;;1.40;;
9438;SDS011;5176;42.622;25.386;2023-03-01T02:58:25;1.43;;;1.33;;
9438;SDS011;5176;42.622;25.386;2023-03-01T03:00:55;1.70;;;1.60;;
9438;SDS011;5176;42.622;25.386;2023-03-01T03:03:27;2.13;;;1.80;;
9438;SDS011;5176;42.622;25.386;2023-03-01T03:05:56;1.67;;;1.57;;
9438;SDS011;5176;42.622;25.386;2023-03-01T03:08:25;2.03;;;1.93;;
9438;SDS011;5176;42.622;25.386;2023-03-01T03:10:54;2.80;;;2.60;;
9438;SDS011;5176;42.622;25.386;2023-03-01T03:13:22;2.50;;;2.30;;
9438;SDS011;5176;42.622;25.386;2023-03-01T03:15:56;1.90;;;1.80;;
9438;SDS011;5176;42.622;25.386;2023-03-01T03:18:25;2.00;;;1.90;;
9438;SDS011;5176;42.622;25.386;2023-03-01T03:20:54;2.77;;;2.57;;
9438;SDS011;5176;42.622;25.386;2023-03-01T03:23:23;2.40;;;2.30;;
9438;SDS011;5176;42.622;25.386;2023-03-01T03:25:52;2.27;;;2.07;;
9438;SDS011;5176;42.622;25.386;2023-03-01T03:28:20;2.43;;;2.23;;
9438;SDS011;5176;42.622;25.386;2023-03-01T03:30:49;2.93;;;2.73;;
9438;SDS011;5176;42.622;25.386;2023-03-01T03:33:19;2.70;;;2.50;;
9438;SDS011;5176;42.622;25.386;2023-03-01T03:35:49;3.00;;;2.77;;
9438;SDS011;5176;42.622;25.386;2023-03-01T03:38:18;2.60;;;2.40;;
9438;SDS011;5176;42.622;25.386;2023-03-01T03:40:48;4.03;;;2.47;;
9438;SDS011;5176;42.622;25.386;2023-03-01T03:43:19;2.70;;;2.50;;
9438;SDS011;5176;42.622;25.386;2023-03-01T03:45:49;2.60;;;2.40;;
9438;SDS011;5176;42.622;25.386;2023-03-01T03:48:21;4.67;;;4.27;;
9438;SDS011;5176;42.622;25.386;2023-03-01T03:50:50;3.80;;;3.50;;
9438;SDS011;5176;42.622;25.386;2023-03-01T03:53:20;3.50;;;3.20;;
9438;SDS011;5176;42.622;25.386;2023-03-01T03:58:37;3.83;;;3.17;;
9438;SDS011;5176;42.622;25.386;2023-03-01T04:01:06;3.23;;;3.03;;
9438;SDS011;5176;42.622;25.386;2023-03-01T04:03:53;4.27;;;3.10;;
9438;SDS011;5176;42.622;25.386;2023-03-01T04:06:22;4.57;;;4.17;;
9438;SDS011;5176;42.622;25.386;2023-03-01T04:08:51;9.17;;;7.00;;
9438;SDS011;5176;42.622;25.386;2023-03-01T04:11:26;6.67;;;6.03;;
9438;SDS011;5176;42.622;25.386;2023-03-01T04:13:56;13.37;;;12.07;;
9438;SDS011;5176;42.622;25.386;2023-03-01T04:16:26;8.17;;;7.47;;
9438;SDS011;5176;42.622;25.386;2023-03-01T04:18:57;5.90;;;5.40;;
9438;SDS011;5176;42.622;25.386;2023-03-01T04:21:26;4.80;;;4.40;;
9438;SDS011;5176;42.622;25.386;2023-03-01T04:23:54;4.60;;;4.20;;
9438;SDS011;5176;42.622;25.386;2023-03-01T04:26:23;5.10;;;4.70;;
9438;SDS011;5176;42.622;25.386;2023-03-01T04:28:53;4.93;;;4.53;;
9438;SDS011;5176;42.622;25.386;2023-03-01T04:31:22;4.50;;;4.10;;
9438;SDS011;5176;42.622;25.386;2023-03-01T04:33:51;5.10;;;4.60;;
9438;SDS011;5176;42.622;25.386;2023-03-01T04:36:23;5.07;;;4.67;;
9438;SDS011;5176;42.622;25.386;2023-03-01T04:38:53;7.47;;;6.40;;
9438;SDS011;5176;42.622;25.386;2023-03-01T04:41:23;9.93;;;8.40;;
9438;SDS011;5176;42.622;25.386;2023-03-01T04:43:53;6.13;;;5.53;;
9438;SDS011;5176;42.622;25.386;2023-03-01T04:46:21;12.50;;;11.20;;
9438;SDS011;5176;42.622;25.386;2023-03-01T04:48:50;14.13;;;12.63;;
9438;SDS011;5176;42.622;25.386;2023-03-01T04:51:19;8.17;;;7.33;;
9438;SDS011;5176;42.622;25.386;2023-03-01T04:53:50;8.80;;;7.33;;
9438;SDS011;5176;42.622;25.386;2023-03-01T04:56:18;8.93;;;6.90;;
9438;SDS011;5176;42.622;25.386;2023-03-01T04:58:49;16.17;;;9.03;;
9438;SDS011;5176;42.622;25.386;2023-03-01T05:01:21;9.20;;;6.93;;
9438;SDS011;5176;42.622;25.386;2023-03-01T05:03:50;9.10;;;7.60;;
9438;SDS011;5176;42.622;25.386;2023-03-01T05:06:19;5.30;;;4.80;;
9438;SDS011;5176;42.622;25.386;2023-03-01T05:08:50;6.07;;;5.50;;
9438;SDS011;5176;42.622;25.386;2023-03-01T05:11:19;5.10;;;4.60;;
9438;SDS011;5176;42.622;25.386;2023-03-01T05:13:47;4.60;;;4.20;;
9438;SDS011;5176;42.622;25.386;2023-03-01T05:16:21;9.27;;;7.53;;
9438;SDS011;5176;42.622;25.386;2023-03-01T05:18:50;9.53;;;8.17;;
9438;SDS011;5176;42.622;25.386;2023-03-01T05:21:19;14.20;;;9.60;;
9438;SDS011;5176;42.622;25.386;2023-03-01T05:23:47;9.47;;;7.93;;
9438;SDS011;5176;42.622;25.386;2023-03-01T05:26:18;9.37;;;8.07;;
9438;SDS011;5176;42.622;25.386;2023-03-01T05:28:48;5.30;;;4.73;;
9438;SDS011;5176;42.622;25.386;2023-03-01T05:31:16;8.57;;;7.53;;
9438;SDS011;5176;42.622;25.386;2023-03-01T05:33:47;7.43;;;6.57;;
9438;SDS011;5176;42.622;25.386;2023-03-01T05:36:16;4.57;;;4.17;;
9438;SDS011;5176;42.622;25.386;2023-03-01T05:38:46;7.67;;;6.90;;
9438;SDS011;5176;42.622;25.386;2023-03-01T05:41:14;5.73;;;5.13;;
9438;SDS011;5176;42.622;25.386;2023-03-01T05:43:45;7.47;;;6.00;;
9438;SDS011;5176;42.622;25.386;2023-03-01T05:46:13;4.90;;;4.40;;
9438;SDS011;5176;42.622;25.386;2023-03-01T05:48:42;4.60;;;3.83;;
9438;SDS011;5176;42.622;25.386;2023-03-01T05:51:11;13.33;;;10.10;;
9438;SDS011;5176;42.622;25.386;2023-03-01T05:53:39;4.93;;;4.43;;
9438;SDS011;5176;42.622;25.386;2023-03-01T05:56:08;8.70;;;5.37;;
9438;SDS011;5176;42.622;25.386;2023-03-01T05:58:37;16.07;;;12.70;;
9438;SDS011;5176;42.622;25.386;2023-03-01T06:01:10;8.63;;;7.60;;
9438;SDS011;5176;42.622;25.386;2023-03-01T06:03:40;14.87;;;11.43;;
9438;SDS011;5176;42.622;25.386;2023-03-01T06:06:09;12.50;;;10.07;;
9438;SDS011;5176;42.622;25.386;2023-03-01T06:08:37;13.53;;;10.93;;
9438;SDS011;5176;42.622;25.386;2023-03-01T06:11:06;6.97;;;5.90;;
9438;SDS011;5176;42.622;25.386;2023-03-01T06:13:35;9.97;;;8.93;;
9438;SDS011;5176;42.622;25.386;2023-03-01T06:16:04;23.40;;;20.13;;
9438;SDS011;5176;42.622;25.386;2023-03-01T06:18:35;16.47;;;13.37;;
9438;SDS011;5176;42.622;25.386;2023-03-01T06:21:05;11.77;;;8.87;;
9438;SDS011;5176;42.622;25.386;2023-03-01T06:23:35;10.47;;;9.33;;
9438;SDS011;5176;42.622;25.386;2023-03-01T06:26:06;8.30;;;6.67;;
9438;SDS011;5176;42.622;25.386;2023-03-01T06:28:35;19.17;;;15.67;;
9438;SDS011;5176;42.622;25.386;2023-03-01T06:31:04;10.57;;;9.47;;
9438;SDS011;5176;42.622;25.386;2023-03-01T06:33:36;8.73;;;7.47;;
9438;SDS011;5176;42.622;25.386;2023-03-01T06:36:05;8.13;;;7.07;;
9438;SDS011;5176;42.622;25.386;2023-03-01T06:38:35;10.30;;;9.20;;
9438;SDS011;5176;42.622;25.386;2023-03-01T06:41:04;8.23;;;7.37;;
9438;SDS011;5176;42.622;25.386;2023-03-01T06:43:33;7.20;;;6.27;;
9438;SDS011;5176;42.622;25.386;2023-03-01T06:46:03;15.03;;;12.30;;
9438;SDS011;5176;42.622;25.386;2023-03-01T06:48:33;8.63;;;7.10;;
9438;SDS011;5176;42.622;25.386;2023-03-01T06:51:03;7.23;;;6.10;;
9438;SDS011;5176;42.622;25.386;2023-03-01T06:53:32;7.50;;;5.37;;
9438;SDS011;5176;42.622;25.386;2023-03-01T06:56:02;8.87;;;6.27;;
9438;SDS011;5176;42.622;25.386;2023-03-01T06:58:31;8.83;;;7.93;;
9438;SDS011;5176;42.622;25.386;2023-03-01T07:01:00;10.07;;;8.37;;
9438;SDS011;5176;42.622;25.386;2023-03-01T07:03:34;7.17;;;6.43;;
9438;SDS011;5176;42.622;25.386;2023-03-01T07:06:04;5.40;;;4.83;;
9438;SDS011;5176;42.622;25.386;2023-03-01T07:08:33;6.27;;;5.67;;
9438;SDS011;5176;42.622;25.386;2023-03-01T07:11:02;9.00;;;6.93;;
9438;SDS011;5176;42.622;25.386;2023-03-01T07:13:32;11.60;;;8.40;;
9438;SDS011;5176;42.622;25.386;2023-03-01T07:16:01;14.70;;;12.23;;
9438;SDS011;5176;42.622;25.386;2023-03-01T07:18:30;13.50;;;8.50;;
9438;SDS011;5176;42.622;25.386;2023-03-01T07:21:05;11.73;;;9.40;;
9438;SDS011;5176;42.622;25.386;2023-03-01T07:23:34;12.90;;;10.60;;
9438;SDS011;5176;42.622;25.386;2023-03-01T07:26:03;13.23;;;11.83;;
9438;SDS011;5176;42.622;25.386;2023-03-01T07:28:33;14.17;;;12.73;;
9438;SDS011;5176;42.622;25.386;2023-03-01T07:31:05;15.57;;;13.13;;
9438;SDS011;5176;42.622;25.386;2023-03-01T07:33:37;8.47;;;7.63;;
9438;SDS011;5176;42.622;25.386;2023-03-01T07:36:08;8.63;;;7.63;;
9438;SDS011;5176;42.622;25.386;2023-03-01T07:38:37;10.50;;;8.97;;
9438;SDS011;5176;42.622;25.386;2023-03-01T07:41:06;10.63;;;7.87;;
9438;SDS011;5176;42.622;25.386;2023-03-01T07:43:36;10.53;;;8.43;;
9438;SDS011;5176;42.622;25.386;2023-03-01T07:46:05;17.47;;;13.63;;
9438;SDS011;5176;42.622;25.386;2023-03-01T07:48:34;8.17;;;6.63;;
9438;SDS011;5176;42.622;25.386;2023-03-01T07:51:04;6.87;;;5.30;;
9438;SDS011;5176;42.622;25.386;2023-03-01T07:53:35;4.80;;;4.40;;
9438;SDS011;5176;42.622;25.386;2023-03-01T07:56:05;6.37;;;5.33;;
9438;SDS011;5176;42.622;25.386;2023-03-01T07:58:36;4.40;;;4.00;;
9438;SDS011;5176;42.622;25.386;2023-03-01T08:01:06;12.50;;;8.10;;
9438;SDS011;5176;42.622;25.386;2023-03-01T08:03:37;10.93;;;8.33;;
9438;SDS011;5176;42.622;25.386;2023-03-01T08:06:07;10.90;;;9.43;;
9438;SDS011;5176;42.622;25.386;2023-03-01T08:08:38;13.80;;;12.13;;
9438;SDS011;5176;42.622;25.386;2023-03-01T08:11:07;10.27;;;7.90;;
9438;SDS011;5176;42.622;25.386;2023-03-01T08:13:38;7.83;;;6.30;;
9438;SDS011;5176;42.622;25.386;2023-03-01T08:16:08;7.83;;;5.53;;
9438;SDS011;5176;42.622;25.386;2023-03-01T08:18:39;8.00;;;7.17;;
9438;SDS011;5176;42.622;25.386;2023-03-01T08:21:09;13.03;;;8.10;;
9438;SDS011;5176;42.622;25.386;2023-03-01T08:23:41;9.63;;;7.83;;
9438;SDS011;5176;42.622;25.386;2023-03-01T08:26:12;6.90;;;5.83;;
9438;SDS011;5176;42.622;25.386;2023-03-01T08:28:42;9.50;;;7.50;;
9438;SDS011;5176;42.622;25.386;2023-03-01T08:31:16;8.53;;;6.77;;
9438;SDS011;5176;42.622;25.386;2023-03-01T08:33:48;5.73;;;5.13;;
9438;SDS011;5176;42.622;25.386;2023-03-01T08:36:21;7.00;;;5.30;;
9438;SDS011;5176;42.622;25.386;2023-03-01T08:38:52;10.47;;;8.67;;
9438;SDS011;5176;42.622;25.386;2023-03-01T08:41:21;8.37;;;7.13;;
9438;SDS011;5176;42.622;25.386;2023-03-01T08:43:51;12.83;;;8.20;;
9438;SDS011;5176;42.622;25.386;2023-03-01T08:46:25;10.07;;;9.00;;
9438;SDS011;5176;42.622;25.386;2023-03-01T08:48:54;13.43;;;10.00;;
9438;SDS011;5176;42.622;25.386;2023-03-01T08:51:24;26.20;;;11.27;;
9438;SDS011;5176;42.622;25.386;2023-03-01T08:53:55;12.07;;;8.50;;
9438;SDS011;5176;42.622;25.386;2023-03-01T08:56:24;11.40;;;8.50;;
9438;SDS011;5176;42.622;25.386;2023-03-01T08:58:53;10.97;;;9.23;;
9438;SDS011;5176;42.622;25.386;2023-03-01T09:01:21;9.90;;;8.03;;
9438;SDS011;5176;42.622;25.386;2023-03-01T09:03:50;10.87;;;8.50;;
9438;SDS011;5176;42.622;25.386;2023-03-01T09:06:19;12.63;;;11.07;;
9438;SDS011;5176;42.622;25.386;2023-03-01T09:08:48;9.30;;;7.67;;
9438;SDS011;5176;42.622;25.386;2023-03-01T09:11:20;8.83;;;6.63;;
9438;SDS011;5176;42.622;25.386;2023-03-01T09:13:49;7.70;;;6.93;;
9438;SDS011;5176;42.622;25.386;2023-03-01T09:16:19;10.40;;;8.93;;
9438;SDS011;5176;42.622;25.386;2023-03-01T09:18:49;9.27;;;8.07;;
9438;SDS011;5176;42.622;25.386;2023-03-01T09:21:20;7.60;;;6.80;;
9438;SDS011;5176;42.622;25.386;2023-03-01T09:23:50;6.80;;;6.20;;
9438;SDS011;5176;42.622;25.386;2023-03-01T09:26:21;11.40;;;9.97;;
9438;SDS011;5176;42.622;25.386;2023-03-01T09:28:51;7.40;;;6.40;;
9438;SDS011;5176;42.622;25.386;2023-03-01T09:31:24;8.37;;;7.13;;
9438;SDS011;5176;42.622;25.386;2023-03-01T09:33:53;16.10;;;11.53;;
9438;SDS011;5176;42.622;25.386;2023-03-01T09:36:23;12.60;;;10.63;;
9438;SDS011;5176;42.622;25.386;2023-03-01T09:38:53;7.23;;;6.53;;
9438;SDS011;5176;42.622;25.386;2023-03-01T09:41:31;8.30;;;7.10;;
9438;SDS011;5176;42.622;25.386;2023-03-01T09:44:10;7.77;;;7.07;;
9438;SDS011;5176;42.622;25.386;2023-03-01T09:46:46;10.47;;;7.87;;
9438;SDS011;5176;42.622;25.386;2023-03-01T09:49:17;11.70;;;7.77;;
9438;SDS011;5176;42.622;25.386;2023-03-01T09:51:55;15.07;;;11.70;;
9438;SDS011;5176;42.622;25.386;2023-03-01T09:54:27;9.80;;;7.90;;
9438;SDS011;5176;42.622;25.386;2023-03-01T09:57:05;11.43;;;8.50;;
9438;SDS011;5176;42.622;25.386;2023-03-01T09:59:44;10.73;;;8.97;;
9438;SDS011;5176;42.622;25.386;2023-03-01T10:02:23;14.50;;;7.93;;
9438;SDS011;5176;42.622;25.386;2023-03-01T10:04:57;14.63;;;12.17;;
9438;SDS011;5176;42.622;25.386;2023-03-01T10:07:39;16.67;;;13.77;;
9438;SDS011;5176;42.622;25.386;2023-03-01T10:10:16;70.27;;;42.10;;
9438;SDS011;5176;42.622;25.386;2023-03-01T10:12:56;85.60;;;58.37;;
9438;SDS011;5176;42.622;25.386;2023-03-01T10:15:30;39.53;;;31.47;;
9438;SDS011;5176;42.622;25.386;2023-03-01T10:18:05;32.30;;;23.27;;
9438;SDS011;5176;42.622;25.386;2023-03-01T10:20:42;25.93;;;19.77;;
9438;SDS011;5176;42.622;25.386;2023-03-01T10:23:20;19.63;;;12.47;;
9438;SDS011;5176;42.622;25.386;2023-03-01T10:26:03;27.03;;;21.63;;
9438;SDS011;5176;42.622;25.386;2023-03-01T10:28:44;64.50;;;44.53;;
9438;SDS011;5176;42.622;25.386;2023-03-01T10:31:22;13.23;;;9.37;;
9438;SDS011;5176;42.622;25.386;2023-03-01T10:34:07;9.57;;;7.77;;
9438;SDS011;5176;42.622;25.386;2023-03-01T10:36:38;9.67;;;8.67;;
9438;SDS011;5176;42.622;25.386;2023-03-01T10:39:12;11.73;;;9.93;;
9438;SDS011;5176;42.622;25.386;2023-03-01T10:41:59;22.00;;;17.10;;
9438;SDS011;5176;42.622;25.386;2023-03-01T10:44:41;33.20;;;24.43;;
9438;SDS011;5176;42.622;25.386;2023-03-01T10:47:16;24.87;;;18.93;;
9438;SDS011;5176;42.622;25.386;2023-03-01T10:49:51;17.80;;;13.03;;
9438;SDS011;5176;42.622;25.386;2023-03-01T10:52:26;12.63;;;10.03;;
9438;SDS011;5176;42.622;25.386;2023-03-01T10:54:58;11.80;;;9.77;;
9438;SDS011;5176;42.622;25.386;2023-03-01T10:57:38;12.43;;;9.63;;
9438;SDS011;5176;42.622;25.386;2023-03-01T11:00:19;14.17;;;11.97;;
9438;SDS011;5176;42.622;25.386;2023-03-01T11:03:01;13.60;;;11.43;;
9438;SDS011;5176;42.622;25.386;2023-03-01T11:05:40;12.20;;;10.70;;
9438;SDS011;5176;42.622;25.386;2023-03-01T11:08:32;13.77;;;11.77;;
9438;SDS011;5176;42.622;25.386;2023-03-01T11:14:00;18.87;;;15.10;;
9438;SDS011;5176;42.622;25.386;2023-03-01T11:16:38;17.27;;;13.23;;
9438;SDS011;5176;42.622;25.386;2023-03-01T11:19:15;17.33;;;14.80;;
9438;SDS011;5176;42.622;25.386;2023-03-01T11:21:55;23.97;;;19.07;;
9438;SDS011;5176;42.622;25.386;2023-03-01T11:24:30;17.17;;;14.73;;
9438;SDS011;5176;42.622;25.386;2023-03-01T11:27:03;14.67;;;12.97;;
9438;SDS011;5176;42.622;25.386;2023-03-01T11:29:36;16.97;;;14.67;;
9438;SDS011;5176;42.622;25.386;2023-03-01T11:32:11;11.83;;;10.03;;
9438;SDS011;5176;42.622;25.386;2023-03-01T11:34:43;24.43;;;20.07;;
9438;SDS011;5176;42.622;25.386;2023-03-01T11:37:20;18.00;;;15.13;;
9438;SDS011;5176;42.622;25.386;2023-03-01T11:39:57;20.70;;;15.53;;
9438;SDS011;5176;42.622;25.386;2023-03-01T11:42:37;25.40;;;17.97;;
9438;SDS011;5176;42.622;25.386;2023-03-01T11:45:12;15.03;;;12.30;;
9438;SDS011;5176;42.622;25.386;2023-03-01T11:47:46;19.50;;;16.77;;
9438;SDS011;5176;42.622;25.386;2023-03-01T11:50:26;15.30;;;12.83;;
9438;SDS011;5176;42.622;25.386;2023-03-01T11:53:07;16.13;;;13.70;;
9438;SDS011;5176;42.622;25.386;2023-03-01T11:56:03;19.77;;;14.80;;
9438;SDS011;5176;42.622;25.386;2023-03-01T11:58:45;19.53;;;14.47;;
9438;SDS011;5176;42.622;25.386;2023-03-01T12:01:33;17.47;;;13.97;;
9438;SDS011;5176;42.622;25.386;2023-03-01T12:07:19;14.70;;;12.33;;
9438;SDS011;5176;42.622;25.386;2023-03-01T12:09:57;15.00;;;12.37;;
9438;SDS011;5176;42.622;25.386;2023-03-01T12:12:47;16.97;;;15.17;;
9438;SDS011;5176;42.622;25.386;2023-03-01T12:15:46;16.73;;;14.93;;
9438;SDS011;5176;42.622;25.386;2023-03-01T12:18:40;15.40;;;13.17;;
9438;SDS011;5176;42.622;25.386;2023-03-01T12:21:36;14.60;;;12.30;;
9438;SDS011;5176;42.622;25.386;2023-03-01T12:24:23;26.33;;;21.63;;
9438;SDS011;5176;42.622;25.386;2023-03-01T12:27:09;21.00;;;15.63;;
9438;SDS011;5176;42.622;25.386;2023-03-01T12:29:52;14.73;;;11.33;;
9438;SDS011;5176;42.622;25.386;2023-03-01T12:32:34;14.10;;;11.87;;
9438;SDS011;5176;42.622;25.386;2023-03-01T12:35:16;24.03;;;19.47;;
9438;SDS011;5176;42.622;25.386;2023-03-01T12:37:59;25.37;;;20.30;;
9438;SDS011;5176;42.622;25.386;2023-03-01T12:40:46;16.27;;;10.70;;
9438;SDS011;5176;42.622;25.386;2023-03-01T12:43:44;20.87;;;16.53;;
9438;SDS011;5176;42.622;25.386;2023-03-01T12:46:26;16.50;;;12.90;;
9438;SDS011;5176;42.622;25.386;2023-03-01T12:49:04;16.40;;;13.67;;
9438;SDS011;5176;42.622;25.386;2023-03-01T12:51:38;24.97;;;19.93;;
9438;SDS011;5176;42.622;25.386;2023-03-01T12:54:12;32.03;;;25.03;;
9438;SDS011;5176;42.622;25.386;2023-03-01T12:56:45;17.03;;;14.20;;
9438;SDS011;5176;42.622;25.386;2023-03-01T12:59:19;22.13;;;16.67;;
9438;SDS011;5176;42.622;25.386;2023-03-01T13:01:55;18.90;;;14.83;;
9438;SDS011;5176;42.622;25.386;2023-03-01T13:04:33;13.00;;;11.60;;
9438;SDS011;5176;42.622;25.386;2023-03-01T13:07:19;20.13;;;14.90;;
9438;SDS011;5176;42.622;25.386;2023-03-01T13:09:55;41.63;;;26.70;;
9438;SDS011;5176;42.622;25.386;2023-03-01T13:12:44;25.80;;;20.10;;
9438;SDS011;5176;42.622;25.386;2023-03-01T13:15:30;27.63;;;21.80;;
9438;SDS011;5176;42.622;25.386;2023-03-01T13:18:03;35.77;;;28.27;;
9438;SDS011;5176;42.622;25.386;2023-03-01T13:20:54;51.93;;;39.77;;
9438;SDS011;5176;42.622;25.386;2023-03-01T13:23:25;60.70;;;49.23;;
9438;SDS011;5176;42.622;25.386;2023-03-01T13:26:02;49.57;;;39.57;;
9438;SDS011;5176;42.622;25.386;2023-03-01T13:28:51;50.07;;;44.67;;
9438;SDS011;5176;42.622;25.386;2023-03-01T13:37:35;16.93;;;12.90;;
9438;SDS011;5176;42.622;25.386;2023-03-01T13:43:30;11.93;;;9.17;;
9438;SDS011;5176;42.622;25.386;2023-03-01T13:46:02;11.87;;;9.90;;
9438;SDS011;5176;42.622;25.386;2023-03-01T13:48:37;16.80;;;12.00;;
9438;SDS011;5176;42.622;25.386;2023-03-01T13:51:07;17.50;;;13.10;;
9438;SDS011;5176;42.622;25.386;2023-03-01T13:53:39;14.87;;;12.50;;
9438;SDS011;5176;42.622;25.386;2023-03-01T13:56:12;14.37;;;12.23;;
9438;SDS011;5176;42.622;25.386;2023-03-01T13:58:44;15.57;;;12.97;;
9438;SDS011;5176;42.622;25.386;2023-03-01T14:01:24;18.90;;;14.00;;
9438;SDS011;5176;42.622;25.386;2023-03-01T14:03:54;16.43;;;11.97;;
9438;SDS011;5176;42.622;25.386;2023-03-01T14:06:24;17.53;;;14.77;;
9438;SDS011;5176;42.622;25.386;2023-03-01T14:09:00;21.97;;;18.03;;
9438;SDS011;5176;42.622;25.386;2023-03-01T14:11:48;16.83;;;13.77;;
9438;SDS011;5176;42.622;25.386;2023-03-01T14:14:33;26.73;;;21.50;;
9438;SDS011;5176;42.622;25.386;2023-03-01T14:17:16;25.83;;;20.60;;
9438;SDS011;5176;42.622;25.386;2023-03-01T14:20:07;20.37;;;15.37;;
9438;SDS011;5176;42.622;25.386;2023-03-01T14:22:41;34.03;;;23.13;;
9438;SDS011;5176;42.622;25.386;2023-03-01T14:28:01;39.47;;;27.67;;
9438;SDS011;5176;42.622;25.386;2023-03-01T14:30:34;35.50;;;26.27;;
9438;SDS011;5176;42.622;25.386;2023-03-01T14:33:17;15.93;;;13.87;;
9438;SDS011;5176;42.622;25.386;2023-03-01T14:35:56;29.10;;;21.60;;
9438;SDS011;5176;42.622;25.386;2023-03-01T14:38:29;39.77;;;31.60;;
9438;SDS011;5176;42.622;25.386;2023-03-01T14:41:01;26.17;;;21.87;;
9438;SDS011;5176;42.622;25.386;2023-03-01T14:43:32;27.97;;;22.37;;
9438;SDS011;5176;42.622;25.386;2023-03-01T14:46:03;28.93;;;23.80;;
9438;SDS011;5176;42.622;25.386;2023-03-01T14:48:33;28.57;;;22.27;;
9438;SDS011;5176;42.622;25.386;2023-03-01T14:51:04;25.23;;;20.73;;
9438;SDS011;5176;42.622;25.386;2023-03-01T14:53:33;25.53;;;20.67;;
9438;SDS011;5176;42.622;25.386;2023-03-01T14:56:02;20.33;;;15.80;;
9438;SDS011;5176;42.622;25.386;2023-03-01T14:58:31;19.87;;;13.03;;
9438;SDS011;5176;42.622;25.386;2023-03-01T15:01:02;18.60;;;13.60;;
9438;SDS011;5176;42.622;25.386;2023-03-01T15:03:34;25.37;;;17.73;;
9438;SDS011;5176;42.622;25.386;2023-03-01T15:06:05;17.73;;;13.30;;
9438;SDS011;5176;42.622;25.386;2023-03-01T15:08:35;18.23;;;14.37;;
9438;SDS011;5176;42.622;25.386;2023-03-01T15:11:17;21.07;;;15.03;;
9438;SDS011;5176;42.622;25.386;2023-03-01T15:13:51;10.80;;;9.47;;
9438;SDS011;5176;42.622;25.386;2023-03-01T15:16:21;17.43;;;12.03;;
9438;SDS011;5176;42.622;25.386;2023-03-01T15:18:53;13.17;;;10.77;;
9438;SDS011;5176;42.622;25.386;2023-03-01T15:21:25;17.77;;;14.03;;
9438;SDS011;5176;42.622;25.386;2023-03-01T15:23:56;25.93;;;18.30;;
9438;SDS011;5176;42.622;25.386;2023-03-01T15:26:39;15.73;;;13.20;;
9438;SDS011;5176;42.622;25.386;2023-03-01T15:29:12;13.47;;;11.53;;
9438;SDS011;5176;42.622;25.386;2023-03-01T15:31:53;21.90;;;17.20;;
9438;SDS011;5176;42.622;25.386;2023-03-01T15:34:26;81.97;;;60.77;;
9438;SDS011;5176;42.622;25.386;2023-03-01T15:36:57;80.97;;;65.63;;
9438;SDS011;5176;42.622;25.386;2023-03-01T15:39:31;35.27;;;27.10;;
9438;SDS011;5176;42.622;25.386;2023-03-01T15:42:04;44.70;;;33.77;;
9438;SDS011;5176;42.622;25.386;2023-03-01T15:44:35;34.17;;;26.67;;
9438;SDS011;5176;42.622;25.386;2023-03-01T15:47:06;22.33;;;17.87;;
9438;SDS011;5176;42.622;25.386;2023-03-01T15:49:54;44.83;;;33.90;;